Time;durP1;ratioP1;P1;durP2;ratioP2;P2;SDS_P1;SDS_P2;PMS_P1;PMS_P2;Temp;Humidity;BMP_temperature;BMP_pressure;BME280_temperature;BME280_humidity;BME280_pressure;Samples;Min_cycle;Max_cycle;Signal;HPM_P1;HPM_P2
2023/04/30 00:01:53;;;;;;;2.33;2.13;;;;;;;14.47;62.52;102290.84;5026681;28;20120;-48
2023/04/30 00:04:19;;;;;;;1.92;1.83;;;;;;;14.48;62.16;102289.88;5027385;28;20091;-49
2023/04/30 00:06:44;;;;;;;2.22;1.95;;;;;;;14.48;62.18;102291.69;5009111;28;20079;-49
2023/04/30 00:09:09;;;;;;;2.35;2.15;;;;;;;14.47;62.20;102296.19;5010354;28;20036;-47
2023/04/30 00:11:35;;;;;;;2.25;2.05;;;;;;;14.47;62.21;102288.16;5034414;28;20056;-50
2023/04/30 00:14:00;;;;;;;2.30;2.00;;;;;;;14.46;62.54;102288.25;5026891;28;20033;-50
2023/04/30 00:16:26;;;;;;;2.83;2.22;;;;;;;14.46;62.24;102289.09;5026951;28;20041;-50
2023/04/30 00:18:51;;;;;;;2.05;1.85;;;;;;;14.47;62.02;102285.47;5026295;28;20072;-50
2023/04/30 00:21:17;;;;;;;2.00;1.75;;;;;;;14.45;62.39;102295.44;5027002;28;20116;-48
2023/04/30 00:23:42;;;;;;;2.28;2.00;;;;;;;14.45;62.22;102289.22;5027560;28;20037;-48
2023/04/30 00:26:07;;;;;;;2.33;2.13;;;;;;;14.45;61.94;102284.72;5026410;28;20092;-49
2023/04/30 00:28:33;;;;;;;2.15;2.00;;;;;;;14.44;62.23;102274.94;5027367;28;20033;-50
2023/04/30 00:30:58;;;;;;;2.35;2.15;;;;;;;14.44;62.19;102282.09;5025516;28;20064;-50
2023/04/30 00:33:23;;;;;;;2.47;2.13;;;;;;;14.44;62.30;102293.69;5026726;28;20069;-49
2023/04/30 00:35:49;;;;;;;1.80;1.70;;;;;;;14.43;62.33;102285.72;5027385;28;20064;-49
2023/04/30 00:38:14;;;;;;;2.55;2.35;;;;;;;14.42;62.46;102290.22;5026383;28;20032;-47
2023/04/30 00:40:42;;;;;;;2.15;1.98;;;;;;;14.41;62.33;102288.53;5026132;28;20025;-46
2023/04/30 00:43:08;;;;;;;2.60;2.17;;;;;;;14.42;62.31;102295.59;5026153;28;20046;-49
2023/04/30 00:45:33;;;;;;;2.22;2.00;;;;;;;14.42;62.13;102300.94;5009252;28;20717;-48
2023/04/30 00:47:59;;;;;;;4.72;2.20;;;;;;;14.42;62.24;102298.28;5027364;28;20045;-49
2023/04/30 00:50:24;;;;;;;2.75;2.10;;;;;;;14.42;62.21;102300.09;5026237;28;20057;-48
2023/04/30 00:52:50;;;;;;;2.40;2.20;;;;;;;14.42;62.37;102295.59;5027026;28;20037;-48
2023/04/30 00:55:16;;;;;;;2.20;2.00;;;;;;;14.42;62.17;102292.91;5026030;28;20038;-48
2023/04/30 00:57:41;;;;;;;1.88;1.70;;;;;;;14.40;62.46;102294.81;5026404;28;20042;-49
2023/04/30 01:00:10;;;;;;;3.22;2.10;;;;;;;14.41;62.27;102287.63;5025728;28;20037;-47
2023/04/30 01:02:38;;;;;;;2.15;2.00;;;;;;;14.39;62.46;102293.09;5026721;28;20069;-45
2023/04/30 01:05:05;;;;;;;2.30;2.10;;;;;;;14.39;62.11;102289.53;5026929;28;20029;-50
2023/04/30 01:07:32;;;;;;;2.85;2.30;;;;;;;14.39;62.28;102290.44;5026036;28;20037;-46
2023/04/30 01:09:57;;;;;;;2.55;2.22;;;;;;;14.39;62.07;102284.19;5026545;28;20476;-50
2023/04/30 01:12:55;;;;;;;2.40;1.98;;;;;;;14.41;62.10;102283.16;5025137;28;20050;-49
2023/04/30 01:15:32;;;;;;;2.20;2.00;;;;;;;14.39;62.18;102282.38;5025302;28;20050;-48
2023/04/30 01:18:04;;;;;;;2.03;1.83;;;;;;;14.38;62.43;102280.66;5021438;28;20057;-50
2023/04/30 01:20:31;;;;;;;2.15;1.90;;;;;;;14.37;62.12;102286.09;5026673;28;20464;-49
2023/04/30 01:23:36;;;;;;;2.83;2.53;;;;;;;14.39;62.17;102276.13;5025508;28;20037;-49
2023/04/30 01:26:34;;;;;;;2.25;2.05;;;;;;;14.38;61.88;102269.94;5026091;28;20140;-48
2023/04/30 01:29:01;;;;;;;2.83;2.20;;;;;;;14.35;62.27;102275.44;4995753;28;20042;-50
2023/04/30 01:31:27;;;;;;;3.08;2.40;;;;;;;14.35;62.12;102278.13;5025530;28;20037;-47
2023/04/30 01:33:53;;;;;;;2.20;2.05;;;;;;;14.35;62.35;102277.28;5026103;28;20502;-48
2023/04/30 01:36:42;;;;;;;2.28;2.08;;;;;;;14.36;62.27;102282.53;5025338;28;20041;-48
2023/04/30 01:39:20;;;;;;;2.42;1.80;;;;;;;14.35;62.16;102283.50;5026068;28;20032;-48
2023/04/30 01:42:08;;;;;;;2.63;2.40;;;;;;;14.36;62.06;102289.72;5025961;28;20033;-49
2023/04/30 01:44:46;;;;;;;2.47;2.28;;;;;;;14.34;61.99;102291.63;5028506;28;20110;-50
2023/04/30 01:47:28;;;;;;;2.92;2.40;;;;;;;14.34;61.92;102297.84;5028802;28;20032;-44
2023/04/30 01:49:59;;;;;;;2.58;2.13;;;;;;;14.33;61.92;102290.75;5030095;28;20432;-47
2023/04/30 01:52:36;;;;;;;2.60;2.00;;;;;;;14.34;61.92;102295.16;5030276;28;20388;-48
2023/04/30 01:55:10;;;;;;;2.42;2.22;;;;;;;14.33;61.92;102284.53;5029568;28;20029;-47
2023/04/30 01:57:50;;;;;;;2.30;2.10;;;;;;;14.33;62.07;102287.22;5031062;28;20513;-48
2023/04/30 02:00:16;;;;;;;2.63;2.35;;;;;;;14.32;61.98;102291.72;5029426;28;20041;-46
2023/04/30 02:02:42;;;;;;;2.65;2.20;;;;;;;14.31;61.85;102287.28;5012034;28;20037;-49
2023/04/30 02:05:08;;;;;;;3.85;1.98;;;;;;;14.30;61.89;102285.59;5030536;28;20109;-48
2023/04/30 02:07:39;;;;;;;3.45;2.40;;;;;;;14.30;62.01;102293.63;5029509;28;20087;-49
2023/04/30 02:10:05;;;;;;;;;;;;;;;14.39;62.14;102290.44;5030495;28;20034;-48
2023/04/30 02:12:31;;;;;;;3.17;2.35;;;;;;;14.31;61.90;102292.66;5028681;28;20337;-50
2023/04/30 02:14:56;;;;;;;2.88;2.20;;;;;;;14.31;62.09;102289.97;5029270;28;20030;-48
2023/04/30 02:17:21;;;;;;;2.03;1.83;;;;;;;14.29;61.76;102286.53;5028340;28;20029;-49
2023/04/30 02:19:47;;;;;;;3.38;2.20;;;;;;;14.28;61.65;102287.50;5028991;28;20025;-49
2023/04/30 02:22:12;;;;;;;2.45;2.10;;;;;;;14.28;61.83;102292.84;5029414;28;20087;-48
2023/04/30 02:24:38;;;;;;;2.60;2.40;;;;;;;14.28;61.67;102292.84;5029293;28;20026;-48
2023/04/30 02:27:03;;;;;;;2.38;2.17;;;;;;;14.27;62.03;102291.97;5029559;28;20037;-46
2023/04/30 02:29:28;;;;;;;2.63;2.03;;;;;;;14.28;61.89;102296.38;5028413;28;20037;-48
2023/04/30 02:31:58;;;;;;;2.33;2.10;;;;;;;14.27;61.80;102301.81;5028682;28;20047;-48
2023/04/30 02:34:23;;;;;;;2.28;2.00;;;;;;;14.26;61.66;102292.06;5029379;28;20072;-47
2023/04/30 02:36:49;;;;;;;2.40;2.20;;;;;;;14.26;61.94;102286.72;5028723;28;20053;-48
2023/04/30 02:39:14;;;;;;;2.13;1.92;;;;;;;14.25;61.88;102299.22;5011452;28;20041;-50
2023/04/30 02:41:39;;;;;;;3.33;2.72;;;;;;;14.25;61.35;102290.31;5027013;28;20064;-49
2023/04/30 02:44:05;;;;;;;2.30;2.10;;;;;;;14.25;61.75;102288.50;5028593;28;20467;-49
2023/04/30 02:46:30;;;;;;;2.33;2.03;;;;;;;14.24;61.88;102278.75;5028994;28;20042;-50
2023/04/30 02:48:55;;;;;;;2.30;2.10;;;;;;;14.25;61.66;102284.97;5028495;28;20034;-49
2023/04/30 02:51:21;;;;;;;2.42;2.00;;;;;;;14.23;61.85;102279.69;5028801;28;20033;-48
2023/04/30 02:53:46;;;;;;;2.47;2.22;;;;;;;14.24;61.80;102284.13;5027883;28;20041;-49
2023/04/30 02:56:12;;;;;;;2.25;2.03;;;;;;;14.24;61.57;102285.91;5028366;28;20064;-50
2023/04/30 02:58:37;;;;;;;2.55;2.30;;;;;;;14.23;61.67;102278.84;5029327;28;20042;-48
2023/04/30 03:01:02;;;;;;;2.80;2.10;;;;;;;14.23;61.78;102279.69;5027893;28;20038;-48
2023/04/30 03:03:28;;;;;;;2.53;2.13;;;;;;;14.22;61.61;102283.34;5010813;28;20061;-46
2023/04/30 03:05:55;;;;;;;2.50;2.30;;;;;;;14.22;61.51;102283.34;5027903;28;20040;-48
2023/04/30 03:08:20;;;;;;;2.35;2.15;;;;;;;14.22;61.84;102282.44;5028659;28;20025;-48
2023/04/30 03:10:46;;;;;;;2.65;2.22;;;;;;;14.22;61.43;102279.78;5028359;28;20069;-47
2023/04/30 03:13:11;;;;;;;2.53;2.33;;;;;;;14.21;61.88;102280.75;5028823;28;20030;-50
2023/04/30 03:15:37;;;;;;;2.47;2.28;;;;;;;14.21;61.83;102286.09;5028760;28;20034;-47
2023/04/30 03:18:03;;;;;;;2.80;2.45;;;;;;;14.20;61.41;102281.69;5028715;28;20029;-47
2023/04/30 03:20:28;;;;;;;2.55;2.22;;;;;;;14.20;61.79;102290.59;5029413;28;20501;-48
2023/04/30 03:22:53;;;;;;;2.70;2.20;;;;;;;14.20;61.37;102285.25;5028354;28;20044;-48
2023/04/30 03:25:19;;;;;;;2.58;2.33;;;;;;;14.20;61.69;102279.00;5021033;28;20120;-48
2023/04/30 03:27:44;;;;;;;2.38;2.17;;;;;;;14.19;61.51;102280.81;5029377;28;20068;-49
2023/04/30 03:30:10;;;;;;;2.90;2.42;;;;;;;14.19;61.34;102282.66;5027657;28;20033;-47
2023/04/30 03:32:35;;;;;;;2.15;1.95;;;;;;;14.19;61.63;102288.00;5027681;28;20109;-48
2023/04/30 03:35:00;;;;;;;2.53;2.22;;;;;;;14.18;61.29;102284.44;5028422;28;20040;-49
2023/04/30 03:37:26;;;;;;;2.72;2.28;;;;;;;14.18;61.44;102281.75;5027415;28;20058;-48
2023/04/30 03:39:51;;;;;;;2.42;2.22;;;;;;;14.18;61.44;102286.25;5006121;28;20463;-46
2023/04/30 03:42:16;;;;;;;2.10;1.90;;;;;;;14.18;61.23;102283.56;5007968;28;20440;-49
2023/04/30 03:44:42;;;;;;;2.40;2.20;;;;;;;14.18;61.17;102286.25;5024539;28;20029;-47
2023/04/30 03:47:07;;;;;;;2.25;2.05;;;;;;;14.16;61.49;102283.66;5028231;28;20030;-49
2023/04/30 03:49:33;;;;;;;2.42;2.22;;;;;;;14.17;61.57;102284.53;5027422;28;20112;-49
2023/04/30 03:51:58;;;;;;;2.50;2.08;;;;;;;14.17;61.21;102295.25;5027709;28;20037;-48
2023/04/30 03:54:23;;;;;;;2.92;2.20;;;;;;;14.16;61.01;102297.06;5026745;28;20026;-47
2023/04/30 03:56:49;;;;;;;3.22;2.65;;;;;;;14.16;61.51;102296.19;5026627;28;20057;-45
2023/04/30 03:59:14;;;;;;;2.47;2.08;;;;;;;14.16;61.19;102301.56;5028201;28;20077;-49
2023/04/30 04:01:40;;;;;;;2.55;2.10;;;;;;;14.15;61.05;102291.81;5027507;28;20112;-50
2023/04/30 04:04:06;;;;;;;2.65;2.08;;;;;;;14.14;61.25;102292.75;5003730;28;20373;-49
2023/04/30 04:06:32;;;;;;;3.15;2.38;;;;;;;14.14;61.01;102296.28;5026220;28;20100;-48
2023/04/30 04:08:57;;;;;;;2.25;2.08;;;;;;;14.14;61.19;102298.97;5027145;28;20473;-50
2023/04/30 04:11:22;;;;;;;2.25;2.05;;;;;;;14.13;60.91;102296.38;5026576;28;20058;-47
2023/04/30 04:13:48;;;;;;;2.58;2.38;;;;;;;14.14;61.07;102298.97;5027632;28;20045;-49
2023/04/30 04:16:13;;;;;;;2.22;2.03;;;;;;;14.13;61.47;102296.38;5027280;28;20040;-48
2023/04/30 04:18:38;;;;;;;2.65;2.30;;;;;;;14.13;60.95;102299.91;5027680;28;20040;-47
2023/04/30 04:21:04;;;;;;;3.92;2.42;;;;;;;14.12;61.35;102305.34;5026475;28;20153;-47
2023/04/30 04:23:29;;;;;;;2.88;2.40;;;;;;;14.13;60.94;102304.41;5026981;28;20089;-48
2023/04/30 04:25:56;;;;;;;2.50;2.30;;;;;;;14.12;61.02;102298.19;5027684;28;20030;-50
2023/04/30 04:28:21;;;;;;;2.38;2.17;;;;;;;14.12;61.26;102308.03;5026864;28;20042;-47
2023/04/30 04:30:48;;;;;;;2.90;2.35;;;;;;;14.11;61.26;102309.84;5027044;28;20036;-46
2023/04/30 04:33:13;;;;;;;2.50;2.08;;;;;;;14.12;61.34;102308.03;5026878;28;20418;-49
2023/04/30 04:35:39;;;;;;;2.33;2.00;;;;;;;14.12;61.34;102303.53;5026604;28;20144;-49
2023/04/30 04:38:05;;;;;;;2.05;1.92;;;;;;;14.11;60.93;102308.97;5027471;28;20041;-46
2023/04/30 04:40:30;;;;;;;3.22;2.25;;;;;;;14.11;61.13;102311.66;5022442;28;20032;-48
2023/04/30 04:42:55;;;;;;;2.03;1.83;;;;;;;14.11;61.02;102304.50;5027198;28;20060;-49
2023/04/30 04:45:21;;;;;;;2.75;2.38;;;;;;;14.10;61.14;102304.59;5024371;28;20436;-47
2023/04/30 04:47:47;;;;;;;2.38;2.17;;;;;;;14.10;60.87;102312.63;5026406;28;20064;-45
2023/04/30 04:50:13;;;;;;;2.80;2.13;;;;;;;14.09;61.33;102309.09;5027675;28;20029;-47
2023/04/30 04:52:38;;;;;;;2.25;2.00;;;;;;;14.10;61.10;102317.97;5026344;28;20371;-48
2023/04/30 04:55:04;;;;;;;2.63;1.83;;;;;;;14.10;61.54;102310.78;5026642;28;20024;-49
2023/04/30 04:57:30;;;;;;;2.15;1.95;;;;;;;14.10;61.29;102312.63;5025784;28;20065;-48
2023/04/30 04:59:56;;;;;;;1.90;1.80;;;;;;;14.09;61.23;102311.75;5026496;28;20513;-50
2023/04/30 05:02:22;;;;;;;1.92;1.83;;;;;;;14.10;61.30;102320.66;5026719;28;20036;-50
2023/04/30 05:04:49;;;;;;;3.00;2.13;;;;;;;14.08;61.32;102321.59;5026157;28;20029;-46
2023/04/30 05:07:18;;;;;;;2.03;1.85;;;;;;;14.09;61.56;102319.78;5027232;28;20128;-48
2023/04/30 05:09:46;;;;;;;3.42;2.03;;;;;;;14.10;61.48;102326.00;5026156;28;20044;-49
2023/04/30 05:12:13;;;;;;;2.13;1.88;;;;;;;14.09;61.38;102322.47;5026791;28;20553;-47
2023/04/30 05:14:38;;;;;;;2.97;1.90;;;;;;;14.10;61.55;102320.66;5026807;28;20026;-48
2023/04/30 05:17:04;;;;;;;2.25;1.88;;;;;;;14.10;61.66;102323.31;5025752;28;20171;-49
2023/04/30 05:19:29;;;;;;;2.33;2.08;;;;;;;14.10;61.60;102326.00;5008725;28;20033;-49
2023/04/30 05:21:55;;;;;;;2.78;2.05;;;;;;;14.11;61.73;102322.38;5025569;28;20034;-48
2023/04/30 05:24:20;;;;;;;1.70;1.60;;;;;;;14.10;61.43;102316.16;5026095;28;20040;-49
2023/04/30 05:26:45;;;;;;;2.05;1.90;;;;;;;14.10;61.64;102305.44;5025644;28;20040;-50
2023/04/30 05:29:11;;;;;;;2.13;1.92;;;;;;;14.10;61.98;102316.16;5025749;28;20083;-48
2023/04/30 05:31:37;;;;;;;2.17;1.98;;;;;;;14.10;61.46;102315.28;5026228;28;20037;-49
2023/04/30 05:34:02;;;;;;;2.17;1.98;;;;;;;14.11;61.61;102317.00;5025340;28;20029;-48
2023/04/30 05:36:28;;;;;;;2.08;1.98;;;;;;;14.11;61.57;102311.66;5026282;28;20108;-49
2023/04/30 05:38:54;;;;;;;1.70;1.60;;;;;;;14.12;61.82;102318.75;5025266;28;20061;-49
2023/04/30 05:41:20;;;;;;;1.80;1.70;;;;;;;14.12;62.14;102313.38;5025944;28;20049;-47
2023/04/30 05:43:46;;;;;;;2.22;2.03;;;;;;;14.11;61.82;102314.31;5026688;28;20068;-49
2023/04/30 05:46:12;;;;;;;1.60;1.50;;;;;;;14.12;61.71;102318.75;5025379;28;20048;-48
2023/04/30 05:48:37;;;;;;;1.73;1.63;;;;;;;14.13;62.16;102321.34;5025959;28;20030;-48
2023/04/30 05:51:05;;;;;;;1.73;1.60;;;;;;;14.13;61.87;102318.66;5025271;28;20034;-48
2023/04/30 05:53:30;;;;;;;1.67;1.58;;;;;;;14.13;61.98;102316.00;5025961;28;20030;-47
2023/04/30 05:55:56;;;;;;;2.20;2.00;;;;;;;14.14;62.24;102316.84;5026535;28;20088;-46
2023/04/30 05:58:21;;;;;;;1.90;1.80;;;;;;;14.15;62.11;102313.22;5025240;28;20117;-46
2023/04/30 06:00:50;;;;;;;1.70;1.60;;;;;;;14.15;62.22;102318.59;5026254;28;20034;-48
2023/04/30 06:03:17;;;;;;;1.90;1.80;;;;;;;14.16;62.15;102309.59;5025701;28;20036;-48
2023/04/30 06:05:43;;;;;;;2.42;1.85;;;;;;;14.16;62.08;102315.81;5025960;28;20430;-46
2023/04/30 06:08:09;;;;;;;2.10;1.80;;;;;;;14.17;62.34;102311.34;5026834;28;20045;-49
2023/04/30 06:10:34;;;;;;;2.03;1.80;;;;;;;14.17;62.19;102322.03;5025592;28;20042;-48
2023/04/30 06:13:00;;;;;;;1.88;1.70;;;;;;;14.18;62.52;102315.72;5026080;28;20045;-48
2023/04/30 06:15:25;;;;;;;1.85;1.45;;;;;;;14.18;62.67;102324.63;5024939;28;20030;-48
2023/04/30 06:17:51;;;;;;;2.55;2.00;;;;;;;14.20;62.09;102321.84;5025871;28;20468;-47
2023/04/30 06:20:16;;;;;;;1.90;1.80;;;;;;;14.19;62.38;102321.00;5026914;28;20041;-50
2023/04/30 06:22:41;;;;;;;1.77;1.65;;;;;;;14.21;62.57;102318.25;5025452;28;20062;-48
2023/04/30 06:25:07;;;;;;;2.25;1.90;;;;;;;14.21;62.46;102318.25;5008267;28;20040;-48
2023/04/30 06:27:33;;;;;;;2.03;1.83;;;;;;;14.22;62.60;102311.91;5025077;28;20036;-50
2023/04/30 06:29:59;;;;;;;2.30;1.77;;;;;;;14.22;62.68;102310.13;5028893;28;20048;-49
2023/04/30 06:32:25;;;;;;;1.65;1.55;;;;;;;14.23;62.61;102313.66;5034103;28;20040;-49
2023/04/30 06:34:50;;;;;;;2.47;1.83;;;;;;;14.23;62.63;102308.31;5013468;28;20120;-48
2023/04/30 06:37:16;;;;;;;2.67;1.98;;;;;;;14.23;62.70;102314.50;5029742;28;20395;-49
2023/04/30 06:39:41;;;;;;;2.00;1.80;;;;;;;14.25;62.50;102306.41;5024500;28;20041;-49
2023/04/30 06:42:06;;;;;;;1.60;1.50;;;;;;;14.25;62.69;102311.75;5028841;28;20502;-47
2023/04/30 06:44:32;;;;;;;2.13;1.92;;;;;;;14.25;62.76;102309.94;5028076;28;20030;-50
2023/04/30 06:46:57;;;;;;;1.77;1.67;;;;;;;14.27;62.28;102312.53;5028487;28;20042;-47
2023/04/30 06:49:22;;;;;;;2.20;2.00;;;;;;;14.27;62.40;102308.03;5029082;28;20471;-48
2023/04/30 06:51:48;;;;;;;1.90;1.80;;;;;;;14.29;62.36;102307.94;5028730;28;20039;-47
2023/04/30 06:54:13;;;;;;;1.95;1.75;;;;;;;14.29;62.42;102313.31;5028655;28;20061;-46
2023/04/30 06:56:39;;;;;;;2.53;1.80;;;;;;;14.30;62.20;102323.09;5025093;28;20065;-50
2023/04/30 06:59:04;;;;;;;1.90;1.75;;;;;;;14.31;62.67;102324.81;5033811;28;20044;-49
2023/04/30 07:01:29;;;;;;;2.17;1.98;;;;;;;14.31;62.28;102319.44;5028918;28;20061;-48
2023/04/30 07:03:55;;;;;;;1.73;1.63;;;;;;;14.32;62.50;102323.88;5027946;28;20391;-50
2023/04/30 07:06:20;;;;;;;1.75;1.58;;;;;;;14.34;62.43;102321.09;5029149;28;20083;-49
2023/04/30 07:08:47;;;;;;;2.08;1.90;;;;;;;14.34;62.98;102319.28;5029739;28;20466;-49
2023/04/30 07:11:13;;;;;;;2.00;1.90;;;;;;;14.33;62.53;102317.53;5027849;28;20046;-49
2023/04/30 07:13:38;;;;;;;2.15;2.00;;;;;;;14.34;62.50;102321.97;5028613;28;20112;-48
2023/04/30 07:16:04;;;;;;;2.33;2.17;;;;;;;14.36;62.39;102332.59;5027577;28;20466;-49
2023/04/30 07:18:30;;;;;;;2.33;1.83;;;;;;;14.36;62.44;102325.41;5028186;28;20043;-48
2023/04/30 07:20:55;;;;;;;2.35;1.50;;;;;;;14.37;62.64;102313.72;5028808;28;20029;-49
2023/04/30 07:23:21;;;;;;;2.42;1.95;;;;;;;14.36;62.70;102317.38;5028332;28;20044;-48
2023/04/30 07:25:46;;;;;;;2.50;1.88;;;;;;;14.38;62.73;102318.16;5028497;28;20060;-49
2023/04/30 07:28:12;;;;;;;1.63;1.52;;;;;;;14.39;62.45;102317.22;5027577;28;20033;-48
2023/04/30 07:30:37;;;;;;;1.80;1.70;;;;;;;14.40;62.20;102307.34;5027985;28;20439;-48
2023/04/30 07:33:02;;;;;;;1.90;1.80;;;;;;;14.40;62.27;102310.91;5027397;28;20375;-48
2023/04/30 07:35:28;;;;;;;3.00;1.70;;;;;;;14.41;62.49;102315.31;5027523;28;20065;-49
2023/04/30 07:37:53;;;;;;;1.95;1.73;;;;;;;14.42;62.70;102309.00;5028397;28;20072;-49
2023/04/30 07:40:18;;;;;;;2.05;1.88;;;;;;;14.42;62.39;102309.00;5023188;28;20519;-48
2023/04/30 07:42:44;;;;;;;2.22;1.70;;;;;;;14.43;62.54;102305.38;5012660;28;20040;-48
2023/04/30 07:45:10;;;;;;;2.92;1.60;;;;;;;14.43;62.44;102302.69;5026927;28;20028;-48
2023/04/30 07:47:35;;;;;;;2.17;1.90;;;;;;;14.44;62.38;102306.22;5027642;28;20036;-48
2023/04/30 07:50:00;;;;;;;1.83;1.67;;;;;;;14.44;62.12;102303.53;5027855;28;20527;-48
2023/04/30 07:52:26;;;;;;;2.00;1.80;;;;;;;14.45;62.63;102308.81;5027303;28;20071;-49
2023/04/30 07:54:51;;;;;;;2.00;1.80;;;;;;;14.46;62.42;102315.03;5027956;28;20068;-48
2023/04/30 07:57:17;;;;;;;1.83;1.70;;;;;;;14.47;62.52;102304.25;5026591;28;20030;-49
2023/04/30 07:59:42;;;;;;;1.60;1.48;;;;;;;14.47;62.29;102312.28;5027564;28;20475;-49
2023/04/30 08:02:08;;;;;;;1.92;1.73;;;;;;;14.48;62.44;102313.13;5027881;28;20033;-50
2023/04/30 08:04:34;;;;;;;2.78;1.80;;;;;;;14.48;62.48;102310.47;5026922;28;20179;-49
2023/04/30 08:07:00;;;;;;;1.60;1.50;;;;;;;14.48;62.70;102316.66;5027395;28;20476;-47
2023/04/30 08:09:26;;;;;;;2.15;1.88;;;;;;;14.49;62.47;102317.56;5026692;28;20042;-49
2023/04/30 08:11:52;;;;;;;2.20;2.00;;;;;;;14.50;62.72;102316.59;5027229;28;20131;-48
2023/04/30 08:14:18;;;;;;;1.90;1.80;;;;;;;14.51;62.38;102323.69;5027395;28;20480;-48
2023/04/30 08:16:43;;;;;;;1.67;1.50;;;;;;;14.51;62.48;102322.81;5026568;28;20112;-49
2023/04/30 08:19:08;;;;;;;2.05;1.80;;;;;;;14.52;62.73;102325.41;5027059;28;20116;-48
2023/04/30 08:21:34;;;;;;;1.95;1.80;;;;;;;14.53;62.80;102326.28;5026308;28;20040;-49
2023/04/30 08:24:00;;;;;;;2.55;1.60;;;;;;;14.53;62.36;102328.97;5027209;28;20033;-47
2023/04/30 08:26:25;;;;;;;2.00;1.90;;;;;;;14.54;62.57;102325.31;5027906;28;20034;-50
2023/04/30 08:28:51;;;;;;;1.80;1.60;;;;;;;14.55;62.48;102319.03;5027283;28;20036;-50
2023/04/30 08:31:16;;;;;;;1.73;1.45;;;;;;;14.55;62.64;102321.72;5027027;28;20022;-48
2023/04/30 08:33:42;;;;;;;1.92;1.70;;;;;;;14.55;62.91;102317.19;5008681;28;20038;-49
2023/04/30 08:36:07;;;;;;;1.73;1.60;;;;;;;14.55;62.57;102314.53;5027531;28;20037;-47
2023/04/30 08:38:32;;;;;;;2.10;1.90;;;;;;;14.56;62.97;102318.06;5027095;28;20365;-48
2023/04/30 08:41:10;;;;;;;2.05;1.50;;;;;;;14.58;62.92;102321.53;5026454;28;20115;-49
2023/04/30 08:43:35;;;;;;;1.60;1.45;;;;;;;14.57;62.85;102311.78;5026329;28;20104;-48
2023/04/30 08:46:01;;;;;;;1.60;1.50;;;;;;;14.59;62.80;102312.56;5009148;28;20112;-49
2023/04/30 08:48:28;;;;;;;1.73;1.60;;;;;;;14.59;62.84;102312.56;5025926;28;20036;-50
2023/04/30 08:50:53;;;;;;;1.80;1.70;;;;;;;14.59;62.74;102313.41;5026506;28;20032;-50
2023/04/30 08:53:20;;;;;;;1.67;1.58;;;;;;;14.61;62.87;102321.38;5026894;28;20043;-46
2023/04/30 08:55:46;;;;;;;1.60;1.50;;;;;;;14.60;62.87;102309.81;5008403;28;20060;-49
2023/04/30 08:58:12;;;;;;;2.85;1.90;;;;;;;14.61;63.14;102316.03;5026760;28;20126;-47
2023/04/30 09:00:40;;;;;;;2.20;1.42;;;;;;;14.60;63.14;102309.81;5032075;28;20032;-49
2023/04/30 09:03:07;;;;;;;2.28;1.58;;;;;;;14.62;62.83;102307.00;5026253;28;20471;-49
2023/04/30 09:05:32;;;;;;;1.70;1.60;;;;;;;14.63;62.83;102312.28;5026786;28;20036;-47
2023/04/30 09:07:58;;;;;;;1.60;1.50;;;;;;;14.62;63.17;102302.53;5025941;28;20029;-47
2023/04/30 09:10:23;;;;;;;2.13;1.58;;;;;;;14.64;62.87;102302.41;5009369;28;20095;-47
2023/04/30 09:13:03;;;;;;;1.77;1.65;;;;;;;14.65;63.12;102306.84;5025426;28;20101;-48
2023/04/30 09:15:30;;;;;;;1.58;1.48;;;;;;;14.64;63.12;102300.63;5029403;28;20029;-47
2023/04/30 09:18:12;;;;;;;2.50;2.05;;;;;;;14.66;62.82;102297.88;5026886;28;20388;-48
2023/04/30 09:20:52;;;;;;;1.88;1.70;;;;;;;14.65;62.98;102299.66;5025570;28;20105;-46
2023/04/30 09:23:17;;;;;;;1.83;1.35;;;;;;;14.65;62.91;102310.38;5027591;28;20038;-48
2023/04/30 09:25:43;;;;;;;2.47;1.65;;;;;;;14.66;63.18;102301.41;5025516;28;20034;-48
2023/04/30 09:28:12;;;;;;;1.67;1.58;;;;;;;14.67;63.22;102304.94;5026008;28;20112;-48
2023/04/30 09:30:41;;;;;;;1.85;1.50;;;;;;;14.66;63.12;102298.72;5026591;28;20033;-50
2023/04/30 09:33:08;;;;;;;1.88;1.70;;;;;;;14.66;63.36;102295.19;5025648;28;20538;-45
2023/04/30 09:35:35;;;;;;;1.48;1.35;;;;;;;14.68;62.96;102301.31;5025568;28;20033;-46
2023/04/30 09:38:01;;;;;;;1.42;1.33;;;;;;;14.68;63.15;102298.63;5025266;28;20037;-46
2023/04/30 09:40:39;;;;;;;1.58;1.48;;;;;;;14.69;63.17;102291.44;5021708;28;20037;-50
2023/04/30 09:43:05;;;;;;;1.38;1.27;;;;;;;14.70;63.02;102298.53;5026365;28;20033;-50
2023/04/30 09:45:40;;;;;;;1.52;1.42;;;;;;;14.70;63.19;102294.06;5025367;28;20036;-45
2023/04/30 09:48:09;;;;;;;1.63;1.52;;;;;;;14.70;63.26;102290.47;5026238;28;20383;-48
2023/04/30 09:50:41;;;;;;;1.80;1.60;;;;;;;14.71;63.52;102295.75;5026231;28;20057;-49
2023/04/30 09:53:08;;;;;;;1.50;1.40;;;;;;;14.72;63.44;102294.81;5026808;28;20036;-50
2023/04/30 09:55:35;;;;;;;2.63;1.70;;;;;;;14.70;63.40;102283.31;5025534;28;20353;-48
2023/04/30 09:58:04;;;;;;;1.70;1.60;;;;;;;14.71;63.43;102290.41;5026215;28;20044;-49
2023/04/30 10:00:32;;;;;;;1.90;1.45;;;;;;;14.71;63.27;102285.03;5025535;28;20541;-50
2023/04/30 10:03:00;;;;;;;2.08;1.83;;;;;;;14.73;63.18;102283.13;5026689;28;20061;-49
2023/04/30 10:05:26;;;;;;;1.85;1.73;;;;;;;14.73;63.43;102285.81;5030630;28;20017;-50
2023/04/30 10:07:52;;;;;;;1.55;1.45;;;;;;;14.73;63.38;102285.81;5029402;28;20112;-48
2023/04/30 10:10:18;;;;;;;1.83;1.50;;;;;;;14.73;63.51;102283.13;5030226;28;20090;-47
2023/04/30 10:12:49;;;;;;;1.40;1.30;;;;;;;14.74;63.54;102284.88;5028919;28;20053;-45
2023/04/30 10:15:24;;;;;;;1.95;1.85;;;;;;;14.75;63.60;102285.72;5029544;28;20051;-49
2023/04/30 10:17:56;;;;;;;1.35;1.25;;;;;;;14.75;63.56;102273.16;5028621;28;20124;-47
2023/04/30 10:20:25;;;;;;;1.70;1.55;;;;;;;14.76;63.68;102266.88;5029293;28;20439;-46
2023/04/30 10:22:51;;;;;;;1.92;1.63;;;;;;;14.75;63.72;102277.69;5029806;28;20120;-49
2023/04/30 10:25:17;;;;;;;2.03;1.80;;;;;;;14.75;63.52;102265.13;5028894;28;20402;-47
2023/04/30 10:27:42;;;;;;;1.60;1.50;;;;;;;14.76;63.69;102272.22;5029280;28;20121;-49
2023/04/30 10:30:09;;;;;;;2.50;1.70;;;;;;;14.76;63.57;102272.22;5028193;28;20434;-49
2023/04/30 10:32:58;;;;;;;2.10;1.45;;;;;;;14.77;63.54;102260.53;5028714;28;20076;-47
2023/04/30 10:35:27;;;;;;;1.60;1.50;;;;;;;14.77;63.83;102257.84;5030814;28;20029;-50
2023/04/30 10:38:02;;;;;;;1.70;1.50;;;;;;;14.78;63.47;102261.41;5028940;28;20029;-51
2023/04/30 10:40:27;;;;;;;1.80;1.70;;;;;;;14.78;63.53;102256.91;5023796;28;20048;-49
2023/04/30 10:42:53;;;;;;;1.42;1.33;;;;;;;14.78;63.53;102256.91;5028192;28;20479;-49
2023/04/30 10:45:34;;;;;;;2.80;1.45;;;;;;;14.79;63.49;102244.38;5028831;28;20064;-48
2023/04/30 10:48:05;;;;;;;2.13;1.80;;;;;;;14.79;63.65;102247.03;5029927;28;20561;-49
2023/04/30 10:50:30;;;;;;;1.98;1.88;;;;;;;14.80;63.65;102246.97;5028799;28;20030;-49
2023/04/30 10:53:03;;;;;;;1.70;1.60;;;;;;;14.80;63.69;102241.59;5028917;28;20032;-46
2023/04/30 10:55:31;;;;;;;1.95;1.45;;;;;;;14.80;64.10;102244.28;5028032;28;20072;-49
2023/04/30 10:57:58;;;;;;;1.50;1.40;;;;;;;14.81;63.73;102231.72;5029330;28;20026;-47
2023/04/30 11:00:26;;;;;;;2.00;1.70;;;;;;;14.81;64.09;102232.63;5028492;28;20529;-46
2023/04/30 11:02:56;;;;;;;1.65;1.55;;;;;;;14.82;63.74;102223.59;5036519;28;20025;-50
2023/04/30 11:05:34;;;;;;;1.92;1.65;;;;;;;14.84;64.11;102223.50;5028210;28;20022;-48
2023/04/30 11:08:00;;;;;;;2.47;1.60;;;;;;;14.81;63.94;102211.16;5029353;28;20595;-48
2023/04/30 11:10:32;;;;;;;1.98;1.60;;;;;;;14.82;63.90;102217.38;5035599;28;20037;-48
2023/04/30 11:13:03;;;;;;;2.75;1.80;;;;;;;14.84;64.17;102213.63;5028640;28;20144;-47
2023/04/30 11:15:40;;;;;;;2.17;1.52;;;;;;;14.86;64.09;102206.38;5028316;28;20042;-49
2023/04/30 11:18:07;;;;;;;1.40;1.30;;;;;;;14.84;63.76;102208.28;5008217;28;20061;-49
2023/04/30 11:20:40;;;;;;;2.95;1.65;;;;;;;14.85;63.97;102203.81;5028046;28;20034;-49
2023/04/30 11:23:13;;;;;;;1.75;1.65;;;;;;;14.86;63.82;102208.19;5010764;28;20045;-48
2023/04/30 11:25:48;;;;;;;1.98;1.80;;;;;;;14.87;64.20;102207.25;5027132;28;20568;-49